Etusivu
METAR-TAF:

METAR-TAF

Lentoasemat :

Front Royal, Virginia, Yhdysvallat

Leveyspiiri: 38-55-03N, Pituuspiiri: 078-15-12W, korkeus merenpinnasta: 216 m

Tämänhetkinen sää

Tämä raportti tehtiin 23 minuuttia sitten, kello 16.35 UTC
Tuuli 9 kn lännestä puuskistuen 18 kn:hen
Lämpötila 31°C
Kosteus 43%
Ilmanpaine 1008 hPa
selkeää

METAR: KFRR 031635Z AUTO 28009G18KT CLR 31/17 A2976 RMK AO1

Aika: 12:58 (16:58 UTC)


TAF: puuttuu

Säähavainnot ja -ennusteet yli 4000 lentoasemalta (METAR- ja TAF-raportit).

Käytössä olevat sääasemat on merkitty karttaan keltaisilla ja punaisilla pisteillä.

Aseta hiiri pisteen päälle nähdäksesi sääaseman nimen.

Klikkaa sitten nähdäksesi säähavainnot ja -ennusteet.

Kartan vaihtaminen: klikkaa mustalla rastilla varustettuja vihreitä pisteitä, niin voit zoomata sisään; viivalla varustettua vihreää pistettä, niin voit zoomata ulos tai vihreitä nuolia, niin pääset viereisille kartoille.


METAR-TAF: